Watertown International Airport
KART : now visible

Airfield :











YOU CAN JOIN US ON...

 
LOGIN :

Register | Disclaimer

   EN    FR    IT 

 









Legend :    VFR   Marginal VFR   IFR   Intensive IFR   Very Intensive IFR
Visi :
Ceiling :
>= 8 km
>= 3000ft
5 to 8 km
1000 to 3000 ft
1500m to 5 km
500 to 1000 ft
800 to 1500m
200 to 500 ft
< 800m
< 200 ft
Symbols :   Thunderstorms  Fog  Heavy snow  Heavy precipitations  Wind > 20 kt






- Airport Elevation : 325 ft
- IATA code : ART


KART - Watertown International

CURRENT METAR :
  • 080556Z AUTO 23005KT 10SM OVC050 02/M01 A3002 RMK AO2 SLP168 T00221006 10061 20022 51024 $

EXPIRED METARs :
  • 080456Z AUTO 23007KT 10SM OVC049 03/00 A3000 RMK AO2 SLP161 T00280000 400831150 $
  • 080356Z AUTO 24006KT 10SM SCT025 OVC031 03/01 A2997 RMK AO2 SLP154 T00330011 $
  • 080339Z AUTO 25006KT 10SM SCT025 BKN029 OVC045 03/01 A2997 RMK AO2 T00330011 $

TAF KART
Valid from the 08 at 06:00 until the 09 at 06:00 UTC


080523Z 0806/0906 23010KT P6SM OVC045
TEMPO 0806/0808 BKN025
FM080800 26012KT P6SM OVC025
FM081400 27010KT P6SM BKN040
FM081800 25012G18KT P6SM BKN035
FM090300 23010KT P6SM BKN025
KZBW FIR / North America



MET'MAP, your aeronautical weather chart ! - Copyright ORBIFLY December 2007 - Disclaimer

ORBIFLY MET'MAP TEAM :

Programming & Development : Alexandra Zaïnal
Original concept : Baudouin d'Aumeries
Technical & hardware support : Manuel Goepfert
Assistance : Marc-Olivier Méhu




SOURCES & CREDITS :

   NOAA       Earth
Advisory